createdAt,value
2019-04-03T00:01:40.428Z,22.45
2019-04-03T00:04:08.917Z,21.02
2019-04-03T00:06:37.345Z,21.82
2019-04-03T00:09:07.826Z,22.37
2019-04-03T00:11:39.347Z,23.20
2019-04-03T00:14:07.423Z,23.27
2019-04-03T00:16:35.877Z,21.60
2019-04-03T00:19:04.388Z,23.10
2019-04-03T00:21:32.829Z,23.62
2019-04-03T00:24:01.391Z,24.30
2019-04-03T00:26:30.821Z,23.38
2019-04-03T00:28:59.729Z,23.92
2019-04-03T00:31:28.229Z,25.15
2019-04-03T00:33:56.676Z,25.60
2019-04-03T00:36:25.304Z,24.75
2019-04-03T00:38:54.374Z,24.60
2019-04-03T00:41:24.746Z,25.43
2019-04-03T00:43:54.461Z,25.05
2019-04-03T00:46:24.455Z,25.80
2019-04-03T00:48:55.200Z,25.55
2019-04-03T00:51:23.890Z,25.05
2019-04-03T00:53:52.344Z,24.12
2019-04-03T00:56:20.770Z,26.17
2019-04-03T00:58:49.262Z,24.55
2019-04-03T01:01:17.924Z,24.70
2019-04-03T01:03:46.363Z,25.50
2019-04-03T01:06:14.824Z,24.77
2019-04-03T01:08:43.390Z,25.75
2019-04-03T01:11:11.822Z,24.90
2019-04-03T01:13:40.271Z,25.65
2019-04-03T01:16:08.802Z,26.20
2019-04-03T01:18:37.329Z,25.90
2019-04-03T01:21:06.876Z,26.40
2019-04-03T01:23:37.996Z,26.37
2019-04-03T01:26:05.900Z,26.48
2019-04-03T01:28:34.345Z,24.72
2019-04-03T01:31:02.797Z,25.95
2019-04-03T01:33:31.280Z,26.70
2019-04-03T01:35:59.761Z,25.30
2019-04-03T01:38:28.313Z,26.35
2019-04-03T01:40:56.851Z,27.65
2019-04-03T01:43:25.345Z,27.70
2019-04-03T01:45:56.601Z,25.35
2019-04-03T01:48:23.961Z,26.77
2019-04-03T01:50:52.388Z,26.48
2019-04-03T01:53:20.909Z,23.38
2019-04-03T01:55:49.368Z,25.68
2019-04-03T01:58:17.884Z,25.48
2019-04-03T02:00:46.400Z,25.32
2019-04-03T02:03:14.850Z,26.42
2019-04-03T02:05:44.052Z,26.33
2019-04-03T02:08:14.157Z,26.90
2019-04-03T02:10:42.706Z,26.55
2019-04-03T02:13:11.159Z,26.70
2019-04-03T02:15:39.582Z,28.27
2019-04-03T02:18:08.033Z,27.02
2019-04-03T02:20:36.491Z,26.80
2019-04-03T02:23:05.002Z,27.20
2019-04-03T02:25:33.535Z,28.87
2019-04-03T02:28:04.012Z,27.85
2019-04-03T02:30:32.182Z,26.62
2019-04-03T02:33:00.624Z,27.73
2019-04-03T02:35:29.200Z,27.73
2019-04-03T02:37:57.712Z,26.62
2019-04-03T02:40:26.441Z,26.27
2019-04-03T02:42:55.055Z,26.80
2019-04-03T02:45:24.701Z,26.48
2019-04-03T02:47:53.471Z,26.90
2019-04-03T02:50:25.565Z,28.67
2019-04-03T02:52:57.978Z,28.70
2019-04-03T02:55:25.763Z,28.25
2019-04-03T02:57:54.515Z,25.68
2019-04-03T03:00:23.089Z,27.15
2019-04-03T03:02:51.698Z,26.77
2019-04-03T03:05:20.618Z,27.73
2019-04-03T03:07:49.061Z,27.87
2019-04-03T03:10:19.357Z,27.67
2019-04-03T03:12:48.490Z,27.40
2019-04-03T03:15:17.006Z,28.23
2019-04-03T03:17:46.175Z,27.07
2019-04-03T03:20:16.842Z,27.95
2019-04-03T03:22:47.663Z,28.23
2019-04-03T03:25:15.757Z,28.10
2019-04-03T03:27:44.323Z,27.52
2019-04-03T03:30:33.346Z,27.67
2019-04-03T03:32:43.871Z,27.17
2019-04-03T03:35:16.568Z,28.00
2019-04-03T03:37:42.935Z,26.95
2019-04-03T03:40:15.042Z,27.82
2019-04-03T03:42:41.975Z,28.00
2019-04-03T03:45:11.125Z,27.70
2019-04-03T03:47:39.813Z,28.52
2019-04-03T03:50:08.870Z,28.85
2019-04-03T03:52:41.048Z,30.48
2019-04-03T03:55:09.806Z,28.40
2019-04-03T03:57:40.506Z,29.30
2019-04-03T04:00:10.142Z,29.45
2019-04-03T04:02:43.163Z,30.30
2019-04-03T04:05:11.568Z,28.98
2019-04-03T04:07:41.231Z,29.05
2019-04-03T04:10:09.961Z,28.50
2019-04-03T04:12:41.221Z,28.98
2019-04-03T04:15:08.877Z,29.10
2019-04-03T04:17:37.461Z,29.48
2019-04-03T04:20:07.463Z,27.13
2019-04-03T04:22:37.327Z,27.80
2019-04-03T04:25:07.060Z,28.98
2019-04-03T04:27:38.068Z,29.87
2019-04-03T04:30:06.530Z,27.42
2019-04-03T04:32:35.212Z,27.32
2019-04-03T04:35:05.169Z,27.95
2019-04-03T04:37:33.641Z,28.12
2019-04-03T04:40:05.667Z,26.57
2019-04-03T04:42:34.808Z,27.75
2019-04-03T04:45:05.014Z,27.45
2019-04-03T04:47:33.601Z,29.60
2019-04-03T04:50:02.203Z,27.80
2019-04-03T04:52:30.702Z,28.38
2019-04-03T04:55:01.815Z,29.20
2019-04-03T04:57:29.302Z,28.75
2019-04-03T04:59:57.734Z,28.98
2019-04-03T05:02:26.194Z,27.65
2019-04-03T05:04:55.871Z,26.97
2019-04-03T05:07:24.821Z,29.30
2019-04-03T05:09:53.275Z,27.60
2019-04-03T05:12:22.142Z,27.98
2019-04-03T05:14:50.836Z,28.55
2019-04-03T05:17:19.635Z,27.98
2019-04-03T05:19:49.022Z,28.12
2019-04-03T05:22:18.006Z,29.37
2019-04-03T05:24:46.530Z,27.35
2019-04-03T05:27:15.038Z,27.15
2019-04-03T05:29:43.508Z,26.62
2019-04-03T05:32:12.098Z,27.27
2019-04-03T05:34:43.536Z,29.75
2019-04-03T05:37:20.110Z,29.55
2019-04-03T05:39:49.563Z,30.77
2019-04-03T05:42:18.020Z,30.08
2019-04-03T05:44:46.544Z,30.20
2019-04-03T05:47:15.059Z,30.45
2019-04-03T05:49:46.241Z,31.15
2019-04-03T05:52:13.849Z,30.35
2019-04-03T05:54:44.168Z,30.88
2019-04-03T05:57:14.037Z,28.98
2019-04-03T05:59:44.155Z,30.12
2019-04-03T06:02:16.204Z,27.93
2019-04-03T06:04:43.268Z,27.70
2019-04-03T06:07:11.737Z,29.27
2019-04-03T06:09:42.680Z,29.10
2019-04-03T06:12:13.015Z,29.27
2019-04-03T06:14:41.302Z,29.15
2019-04-03T06:17:10.048Z,29.80
2019-04-03T06:19:39.788Z,31.00
2019-04-03T06:22:09.987Z,30.90
2019-04-03T06:24:38.674Z,27.87
2019-04-03T06:27:09.071Z,31.27
2019-04-03T06:29:37.313Z,30.27
2019-04-03T06:32:06.441Z,28.52
2019-04-03T06:34:37.919Z,31.45
2019-04-03T06:37:05.168Z,28.62
2019-04-03T06:39:33.641Z,29.92
2019-04-03T06:42:02.287Z,28.87
2019-04-03T06:44:30.751Z,30.68
2019-04-03T06:47:00.830Z,29.40
2019-04-03T06:49:29.393Z,29.90
2019-04-03T06:51:57.846Z,27.73
2019-04-03T06:54:26.289Z,29.72
2019-04-03T06:56:54.810Z,30.97
2019-04-03T06:59:23.270Z,29.57
2019-04-03T07:01:52.846Z,29.40
2019-04-03T07:04:22.158Z,27.85
2019-04-03T07:06:50.639Z,30.62
2019-04-03T07:09:24.029Z,29.85
2019-04-03T07:11:49.243Z,29.05
2019-04-03T07:14:17.917Z,28.90
2019-04-03T07:16:46.607Z,28.38
2019-04-03T07:19:15.113Z,28.80
2019-04-03T07:21:43.549Z,28.87
2019-04-03T07:24:12.215Z,28.80
2019-04-03T07:26:40.806Z,27.35
2019-04-03T07:29:11.491Z,27.90
2019-04-03T07:31:39.553Z,28.02
2019-04-03T07:34:08.189Z,28.57
2019-04-03T07:36:36.812Z,26.97
2019-04-03T07:39:10.578Z,28.38
2019-04-03T07:41:40.875Z,29.12
2019-04-03T07:44:08.104Z,28.23
2019-04-03T07:46:36.558Z,28.30
2019-04-03T07:49:09.102Z,28.85
2019-04-03T07:51:37.190Z,28.47
2019-04-03T07:54:05.884Z,33.67
2019-04-03T07:56:34.345Z,29.70
2019-04-03T07:59:03.701Z,30.43
2019-04-03T08:01:32.531Z,30.32
2019-04-03T08:04:00.961Z,29.90
2019-04-03T08:06:29.506Z,28.83
2019-04-03T08:09:07.673Z,28.38
2019-04-03T08:11:28.206Z,29.60
2019-04-03T08:13:56.807Z,29.32
2019-04-03T08:16:25.405Z,30.05
2019-04-03T08:18:53.923Z,30.12
2019-04-03T08:21:22.373Z,31.25
2019-04-03T08:23:50.828Z,29.57
2019-04-03T08:26:19.913Z,31.77
2019-04-03T08:28:48.508Z,30.70
2019-04-03T08:31:16.943Z,30.75
2019-04-03T08:33:45.450Z,30.95
2019-04-03T08:36:24.006Z,29.12
2019-04-03T08:38:45.371Z,28.80
2019-04-03T08:41:14.306Z,30.10
2019-04-03T08:43:43.931Z,28.52
2019-04-03T08:46:12.391Z,27.98
2019-04-03T08:48:41.391Z,27.32
2019-04-03T08:51:09.839Z,29.48
2019-04-03T08:53:39.308Z,26.93
2019-04-03T08:56:08.347Z,28.52
2019-04-03T08:58:37.110Z,26.93
2019-04-03T09:01:05.761Z,28.50
2019-04-03T09:03:34.331Z,27.60
2019-04-03T09:06:03.126Z,27.85
2019-04-03T09:08:33.157Z,28.62
2019-04-03T09:11:04.198Z,26.35
2019-04-03T09:13:31.960Z,27.85
2019-04-03T09:16:00.432Z,26.20
2019-04-03T09:18:30.490Z,27.87
2019-04-03T09:20:59.121Z,27.05
2019-04-03T09:23:27.629Z,26.35
2019-04-03T09:25:56.271Z,25.05
2019-04-03T09:28:31.695Z,26.27
2019-04-03T09:31:00.162Z,27.73
2019-04-03T09:33:29.720Z,24.15
2019-04-03T09:35:59.856Z,24.00
2019-04-03T09:38:28.610Z,26.02
2019-04-03T09:40:57.098Z,26.20
2019-04-03T09:43:25.694Z,22.82
2019-04-03T09:45:54.157Z,23.27
2019-04-03T09:48:22.952Z,24.23
2019-04-03T09:50:51.449Z,23.10
2019-04-03T09:53:19.915Z,24.67
2019-04-03T09:55:50.381Z,24.52
2019-04-03T09:58:19.204Z,24.25
2019-04-03T10:00:47.939Z,23.77
2019-04-03T10:03:16.390Z,23.62
2019-04-03T10:05:45.145Z,23.35
2019-04-03T10:08:13.707Z,22.77
2019-04-03T10:10:42.341Z,23.40
2019-04-03T10:13:11.117Z,25.00
2019-04-03T10:15:39.605Z,24.85
2019-04-03T10:18:09.575Z,25.95
2019-04-03T10:20:38.224Z,27.85
2019-04-03T10:23:06.695Z,27.73
2019-04-03T10:25:37.082Z,27.62
2019-04-03T10:28:05.590Z,28.17
2019-04-03T10:30:34.218Z,28.12
2019-04-03T10:33:02.656Z,28.40
2019-04-03T10:35:31.171Z,28.38
2019-04-03T10:37:59.786Z,29.60
2019-04-03T10:40:28.498Z,30.27
2019-04-03T10:42:59.832Z,27.07
2019-04-03T10:45:27.351Z,29.35
2019-04-03T10:47:56.703Z,30.30
2019-04-03T10:50:25.394Z,30.82
2019-04-03T10:52:54.340Z,29.52
2019-04-03T10:55:23.007Z,30.92
2019-04-03T10:57:51.499Z,31.57
2019-04-03T11:00:20.110Z,29.95
2019-04-03T11:02:48.708Z,30.45
2019-04-03T11:05:17.879Z,29.80
2019-04-03T11:07:46.957Z,30.02
2019-04-03T11:10:16.620Z,29.57
2019-04-03T11:12:45.360Z,28.55
2019-04-03T11:15:14.729Z,29.52
2019-04-03T11:17:43.304Z,28.85
2019-04-03T11:20:14.051Z,28.25
2019-04-03T11:22:43.372Z,27.48
2019-04-03T11:25:15.285Z,31.12
2019-04-03T11:27:44.768Z,27.87
2019-04-03T11:30:17.673Z,23.80
2019-04-03T11:32:45.141Z,24.30
2019-04-03T11:35:14.961Z,24.52
2019-04-03T11:37:43.749Z,23.73
2019-04-03T11:40:13.329Z,24.00
2019-04-03T11:42:42.630Z,23.00
2019-04-03T11:45:11.725Z,23.25
2019-04-03T11:47:40.408Z,23.47
2019-04-03T11:50:10.137Z,22.93
2019-04-03T11:52:38.978Z,21.42
2019-04-03T11:55:10.861Z,21.95
2019-04-03T11:57:38.286Z,20.65
2019-04-03T12:00:19.940Z,22.93
2019-04-03T12:02:48.577Z,19.67
2019-04-03T12:05:20.707Z,19.77
2019-04-03T12:07:48.215Z,19.70
2019-04-03T12:10:16.896Z,19.23
2019-04-03T12:12:45.432Z,17.95
2019-04-03T12:15:16.209Z,18.32
2019-04-03T12:17:44.945Z,17.85
2019-04-03T12:20:16.338Z,19.52
2019-04-03T12:22:45.073Z,19.70
2019-04-03T12:25:14.135Z,18.42
2019-04-03T12:27:44.992Z,18.98
2019-04-03T12:30:13.621Z,19.77
2019-04-03T12:32:47.367Z,18.42
2019-04-03T12:35:14.305Z,20.08
2019-04-03T12:37:42.969Z,19.85
2019-04-03T12:40:12.537Z,18.42
2019-04-03T12:42:41.262Z,19.98
2019-04-03T12:45:10.675Z,18.90
2019-04-03T12:47:39.391Z,18.85
2019-04-03T12:50:08.545Z,18.60
2019-04-03T12:52:37.050Z,16.80
2019-04-03T12:55:08.658Z,17.25
2019-04-03T12:57:39.206Z,16.70
2019-04-03T13:00:13.075Z,16.50
2019-04-03T13:02:42.507Z,15.93
2019-04-03T13:05:22.258Z,16.52
2019-04-03T13:07:51.126Z,14.55
2019-04-03T13:10:20.081Z,11.53
2019-04-03T13:12:48.626Z,11.50
2019-04-03T13:15:17.245Z,9.05
2019-04-03T13:17:45.811Z,8.88
2019-04-03T13:20:14.503Z,8.83
2019-04-03T13:22:43.716Z,7.83
2019-04-03T13:25:12.855Z,6.65
2019-04-03T13:27:41.825Z,7.37
2019-04-03T13:30:12.814Z,7.53
2019-04-03T13:32:41.804Z,7.58
2019-04-03T13:35:11.305Z,6.58
2019-04-03T13:37:39.896Z,6.85
2019-04-03T13:40:12.334Z,6.80
2019-04-03T13:42:41.043Z,6.33
2019-04-03T13:45:10.443Z,5.67
2019-04-03T13:47:41.761Z,5.45
2019-04-03T13:50:10.650Z,5.70
2019-04-03T13:52:43.067Z,4.22
2019-04-03T13:55:10.033Z,4.92
2019-04-03T13:57:38.718Z,4.87
2019-04-03T14:00:20.573Z,4.92
2019-04-03T14:02:40.108Z,4.90
2019-04-03T14:05:11.987Z,5.47
2019-04-03T14:07:41.844Z,5.67
2019-04-03T14:10:11.222Z,5.65
2019-04-03T14:12:43.702Z,5.55
2019-04-03T14:15:10.200Z,5.42
2019-04-03T14:17:38.766Z,6.37
2019-04-03T14:20:08.842Z,6.58
2019-04-03T14:22:38.370Z,7.25
2019-04-03T14:25:19.847Z,7.70
2019-04-03T14:27:40.015Z,8.43
2019-04-03T14:30:11.604Z,8.15
2019-04-03T14:32:39.977Z,8.98
2019-04-03T14:35:38.329Z,8.20
2019-04-03T14:37:39.137Z,8.15
2019-04-03T14:40:10.964Z,7.67
2019-04-03T14:42:38.559Z,7.83
2019-04-03T14:45:08.039Z,10.25
2019-04-03T14:47:38.585Z,10.65
2019-04-03T14:50:08.120Z,10.93
2019-04-03T14:52:47.676Z,11.38
2019-04-03T14:55:19.814Z,12.50
2019-04-03T14:57:45.652Z,12.68
2019-04-03T15:00:26.029Z,13.15
2019-04-03T15:02:44.821Z,13.03
2019-04-03T15:05:13.407Z,12.65
2019-04-03T15:07:41.911Z,13.70
2019-04-03T15:10:11.053Z,13.95
2019-04-03T15:12:43.358Z,14.10
2019-04-03T15:15:12.699Z,15.25
2019-04-03T15:17:41.580Z,15.25
2019-04-03T15:20:12.576Z,14.85
2019-04-03T15:22:42.577Z,16.32
2019-04-03T15:25:19.562Z,15.72
2019-04-03T15:27:50.665Z,16.85
2019-04-03T15:30:28.004Z,16.20
2019-04-03T15:32:59.583Z,15.58
2019-04-03T15:35:34.484Z,17.60
2019-04-03T15:38:05.476Z,18.00
2019-04-03T15:40:38.674Z,16.87
2019-04-03T15:43:15.930Z,18.48
2019-04-03T15:45:45.475Z,17.27
2019-04-03T15:48:15.948Z,17.17
2019-04-03T15:50:44.785Z,17.50
2019-04-03T15:53:13.650Z,17.50
2019-04-03T15:55:43.126Z,18.27
2019-04-03T15:58:11.740Z,17.17
2019-04-03T16:00:42.710Z,17.07
2019-04-03T16:03:10.651Z,16.52
2019-04-03T16:05:39.592Z,16.52
2019-04-03T16:08:08.102Z,16.73
2019-04-03T16:10:36.548Z,16.73
2019-04-03T16:13:05.520Z,15.38
2019-04-03T16:15:40.267Z,15.70
2019-04-03T16:18:09.073Z,16.23
2019-04-03T16:20:37.648Z,16.27
2019-04-03T16:23:06.104Z,16.20
2019-04-03T16:25:34.676Z,15.98
2019-04-03T16:28:04.493Z,15.25
2019-04-03T16:30:33.050Z,14.25
2019-04-03T16:33:03.543Z,14.53
2019-04-03T16:35:31.728Z,14.10
2019-04-03T16:38:19.522Z,14.30
2019-04-03T16:40:47.966Z,14.30
2019-04-03T16:43:16.444Z,14.05
2019-04-03T16:45:44.900Z,13.60
2019-04-03T16:48:15.923Z,13.08
2019-04-03T16:50:44.056Z,13.30
2019-04-03T16:53:12.682Z,12.65
2019-04-03T16:55:41.141Z,13.78
2019-04-03T16:58:09.579Z,13.50
2019-04-03T17:00:40.685Z,13.78
2019-04-03T17:03:08.275Z,12.60
2019-04-03T17:05:36.744Z,11.93
2019-04-03T17:08:05.329Z,11.83
2019-04-03T17:10:33.767Z,10.80
2019-04-03T17:13:02.217Z,12.20
2019-04-03T17:15:33.603Z,11.63
2019-04-03T17:18:02.021Z,11.12
2019-04-03T17:20:30.851Z,11.50
2019-04-03T17:22:59.572Z,11.63
2019-04-03T17:25:43.571Z,10.70
2019-04-03T17:27:59.767Z,10.40
2019-04-03T17:30:28.431Z,11.93
2019-04-03T17:32:56.930Z,11.97
2019-04-03T17:35:25.432Z,10.70
2019-04-03T17:37:53.911Z,10.58
2019-04-03T17:40:22.466Z,11.18
2019-04-03T17:42:50.981Z,12.37
2019-04-03T17:45:19.908Z,12.18
2019-04-03T17:47:49.719Z,12.93
2019-04-03T17:50:21.239Z,12.68
2019-04-03T17:52:49.696Z,12.43
2019-04-03T17:55:18.240Z,12.93
2019-04-03T17:57:46.749Z,12.43
2019-04-03T18:00:20.620Z,12.82
2019-04-03T18:02:48.171Z,12.55
2019-04-03T18:05:17.761Z,13.38
2019-04-03T18:07:46.255Z,12.68
2019-04-03T18:10:16.055Z,12.45
2019-04-03T18:12:45.711Z,13.20
2019-04-03T18:15:15.160Z,12.20
2019-04-03T18:17:43.682Z,12.63
2019-04-03T18:20:13.838Z,12.85
2019-04-03T18:22:42.282Z,12.50
2019-04-03T18:25:13.995Z,12.55
2019-04-03T18:27:42.565Z,14.00
2019-04-03T18:30:12.613Z,14.10
2019-04-03T18:32:45.664Z,14.07
2019-04-03T18:35:14.380Z,13.35
2019-04-03T18:37:42.906Z,13.60
2019-04-03T18:40:13.885Z,14.58
2019-04-03T18:42:41.739Z,14.13
2019-04-03T18:45:10.787Z,14.68
2019-04-03T18:47:41.650Z,14.43
2019-04-03T18:50:10.493Z,14.05
2019-04-03T18:52:39.468Z,15.13
2019-04-03T18:55:08.522Z,14.65
2019-04-03T18:57:36.965Z,15.50
2019-04-03T19:00:10.109Z,15.95
2019-04-03T19:02:38.593Z,16.02
2019-04-03T19:05:10.940Z,17.02
2019-04-03T19:07:39.113Z,16.82
2019-04-03T19:10:08.280Z,16.55
2019-04-03T19:12:36.927Z,18.00
2019-04-03T19:15:07.481Z,17.87
2019-04-03T19:17:37.694Z,17.27
2019-04-03T19:20:10.752Z,16.20
2019-04-03T19:22:37.573Z,16.27
2019-04-03T19:25:08.124Z,15.58
2019-04-03T19:27:36.596Z,16.02
2019-04-03T19:30:08.229Z,15.65
2019-04-03T19:32:36.836Z,17.05
2019-04-03T19:35:11.241Z,17.15
2019-04-03T19:37:45.054Z,16.52
2019-04-03T19:40:12.662Z,17.00
2019-04-03T19:42:43.527Z,16.85
2019-04-03T19:45:13.083Z,17.65
2019-04-03T19:47:42.288Z,18.30
2019-04-03T19:50:11.263Z,17.27
2019-04-03T19:52:42.194Z,18.62
2019-04-03T19:55:11.056Z,18.77
2019-04-03T19:57:40.567Z,19.25
2019-04-03T20:00:11.211Z,20.52
2019-04-03T20:02:42.642Z,21.77
2019-04-03T20:05:10.036Z,20.17
2019-04-03T20:07:39.645Z,22.32
2019-04-03T20:10:11.613Z,22.37
2019-04-03T20:12:40.409Z,23.05
2019-04-03T20:15:12.188Z,23.95
2019-04-03T20:17:40.701Z,24.52
2019-04-03T20:20:09.257Z,23.67
2019-04-03T20:22:42.245Z,26.45
2019-04-03T20:25:14.542Z,26.20
2019-04-03T20:27:42.854Z,27.37
2019-04-03T20:30:13.375Z,26.90
2019-04-03T20:32:41.832Z,27.50
2019-04-03T20:35:10.400Z,28.02
2019-04-03T20:37:38.945Z,28.77
2019-04-03T20:40:12.013Z,29.87
2019-04-03T20:42:41.437Z,28.87
2019-04-03T20:45:19.857Z,28.42
2019-04-03T20:47:49.376Z,28.07
2019-04-03T20:50:18.091Z,28.32
2019-04-03T20:52:46.910Z,27.58
2019-04-03T20:55:15.596Z,28.45
2019-04-03T20:57:54.931Z,27.85
2019-04-03T21:00:18.035Z,29.65
2019-04-03T21:02:45.942Z,28.50
2019-04-03T21:05:17.898Z,29.63
2019-04-03T21:07:44.562Z,31.05
2019-04-03T21:10:15.650Z,32.70
2019-04-03T21:12:44.087Z,33.50
2019-04-03T21:15:16.969Z,34.83
2019-04-03T21:17:45.483Z,34.03
2019-04-03T21:20:14.002Z,34.45
2019-04-03T21:23:03.659Z,34.53
2019-04-03T21:25:35.724Z,34.73
2019-04-03T21:28:02.595Z,36.77
2019-04-03T21:30:32.745Z,36.58
2019-04-03T21:33:02.958Z,37.30
2019-04-03T21:35:31.495Z,36.80
2019-04-03T21:37:59.984Z,36.58
2019-04-03T21:40:28.427Z,37.08
2019-04-03T21:42:57.834Z,36.33
2019-04-03T21:45:27.891Z,38.95
2019-04-03T21:47:56.684Z,38.70
2019-04-03T21:50:25.329Z,39.38
2019-04-03T21:52:57.207Z,38.00
2019-04-03T21:55:25.858Z,37.58
2019-04-03T21:57:54.291Z,38.65
2019-04-03T22:00:32.938Z,40.03
2019-04-03T22:03:01.394Z,39.05
2019-04-03T22:05:29.850Z,40.08
2019-04-03T22:07:58.876Z,39.75
2019-04-03T22:10:27.328Z,39.20
2019-04-03T22:12:56.383Z,38.42
2019-04-03T22:15:24.821Z,38.20
2019-04-03T22:17:53.287Z,39.27
2019-04-03T22:20:21.796Z,38.92
2019-04-03T22:22:50.325Z,38.25
2019-04-03T22:25:18.769Z,38.23
2019-04-03T22:27:47.233Z,38.90
2019-04-03T22:30:15.741Z,40.90
2019-04-03T22:32:44.197Z,40.08
2019-04-03T22:35:12.793Z,40.00
2019-04-03T22:37:41.329Z,38.30
2019-04-03T22:40:10.828Z,39.40
2019-04-03T22:42:39.462Z,41.35
2019-04-03T22:45:08.028Z,39.05
2019-04-03T22:47:36.685Z,39.92
2019-04-03T22:50:06.154Z,41.42
2019-04-03T22:52:34.693Z,39.95
2019-04-03T22:55:03.218Z,41.45
2019-04-03T22:57:31.672Z,41.13
2019-04-03T23:00:00.201Z,41.20
2019-04-03T23:02:31.814Z,41.15
2019-04-03T23:05:00.641Z,42.75
2019-04-03T23:07:30.685Z,43.10
2019-04-03T23:10:00.669Z,41.02
2019-04-03T23:12:29.191Z,41.83
2019-04-03T23:14:57.716Z,44.48
2019-04-03T23:17:26.197Z,42.70
2019-04-03T23:19:54.696Z,42.53
2019-04-03T23:22:23.903Z,42.08
2019-04-03T23:24:53.316Z,43.35
2019-04-03T23:27:21.765Z,42.78
2019-04-03T23:29:50.209Z,44.58
2019-04-03T23:32:18.666Z,44.03
2019-04-03T23:34:49.425Z,43.20
2019-04-03T23:37:17.296Z,43.08
2019-04-03T23:39:45.756Z,46.25
2019-04-03T23:42:14.196Z,48.95
2019-04-03T23:44:42.741Z,50.45
2019-04-03T23:47:11.246Z,48.38
2019-04-03T23:49:41.090Z,50.12
2019-04-03T23:52:09.840Z,52.38
2019-04-03T23:54:38.280Z,49.40
2019-04-03T23:57:09.548Z,49.63
2019-04-03T23:59:36.900Z,50.00
